createdAt,value
2018-03-26T00:01:03.341Z,0.80
2018-03-26T00:03:31.754Z,0.70
2018-03-26T00:06:00.024Z,2.00
2018-03-26T00:08:28.326Z,0.70
2018-03-26T00:10:56.600Z,1.63
2018-03-26T00:13:24.930Z,0.80
2018-03-26T00:15:53.191Z,4.10
2018-03-26T00:18:22.241Z,2.87
2018-03-26T00:20:50.581Z,0.70
2018-03-26T00:23:19.690Z,0.80
2018-03-26T00:25:48.090Z,0.60
2018-03-26T00:28:16.374Z,1.27
2018-03-26T00:30:44.650Z,1.47
2018-03-26T00:33:12.969Z,1.27
2018-03-26T00:35:42.191Z,0.60
2018-03-26T00:38:10.504Z,0.68
2018-03-26T00:40:38.791Z,0.60
2018-03-26T00:43:07.117Z,0.80
2018-03-26T00:45:36.168Z,1.00
2018-03-26T00:48:04.451Z,1.00
2018-03-26T00:50:32.771Z,3.97
2018-03-26T00:53:01.114Z,0.70
2018-03-26T00:55:29.359Z,0.70
2018-03-26T00:57:57.673Z,0.70
2018-03-26T01:00:25.949Z,1.17
2018-03-26T01:02:54.267Z,0.80
2018-03-26T01:05:22.811Z,16.17
2018-03-26T01:07:51.153Z,19.83
2018-03-26T01:10:19.526Z,19.57
2018-03-26T01:12:47.813Z,19.07
2018-03-26T01:15:16.200Z,21.87
2018-03-26T01:17:44.472Z,22.30
2018-03-26T01:20:13.582Z,19.87
2018-03-26T01:22:41.897Z,25.73
2018-03-26T01:25:10.966Z,21.50
2018-03-26T01:27:39.283Z,21.60
2018-03-26T01:30:08.388Z,22.30
2018-03-26T01:32:37.032Z,23.30
2018-03-26T01:35:05.315Z,23.50
2018-03-26T01:37:33.599Z,23.43
2018-03-26T01:40:01.917Z,24.63
2018-03-26T01:42:30.196Z,21.87
2018-03-26T01:44:58.765Z,23.67
2018-03-26T01:47:27.059Z,23.33
2018-03-26T01:49:55.348Z,23.37
2018-03-26T01:52:23.638Z,24.30
2018-03-26T01:54:51.917Z,24.97
2018-03-26T01:57:20.222Z,23.03
2018-03-26T01:59:48.489Z,23.00
2018-03-26T02:02:16.798Z,23.40
2018-03-26T02:04:45.869Z,25.50
2018-03-26T02:22:48.265Z,17.70
2018-03-26T02:25:16.575Z,17.37
2018-03-26T02:27:44.867Z,21.90
2018-03-26T02:30:13.150Z,22.10
2018-03-26T02:32:42.226Z,20.60
2018-03-26T02:35:10.544Z,22.10
2018-03-26T02:37:38.868Z,21.57
2018-03-26T02:40:07.921Z,22.90
2018-03-26T02:42:36.195Z,19.70
2018-03-26T02:45:04.493Z,23.10
2018-03-26T02:47:32.767Z,23.80
2018-03-26T02:50:01.137Z,23.27
2018-03-26T02:52:29.402Z,22.77
2018-03-26T02:54:57.710Z,22.03
2018-03-26T02:57:26.035Z,23.57
2018-03-26T02:59:54.299Z,22.80
2018-03-26T03:02:23.395Z,24.77
2018-03-26T03:04:52.430Z,21.60
2018-03-26T03:07:20.722Z,23.33
2018-03-26T03:09:49.031Z,22.57
2018-03-26T03:12:17.338Z,24.13
2018-03-26T03:14:46.372Z,23.53
2018-03-26T03:17:14.673Z,23.10
2018-03-26T03:19:42.963Z,21.37
2018-03-26T03:22:12.055Z,22.70
2018-03-26T03:24:40.338Z,22.80
2018-03-26T03:27:09.398Z,24.40
2018-03-26T03:29:37.717Z,22.47
2018-03-26T03:32:06.779Z,20.80
2018-03-26T03:34:35.087Z,21.77
2018-03-26T03:37:03.362Z,22.23
2018-03-26T03:39:31.640Z,24.43
2018-03-26T03:42:00.702Z,23.03
2018-03-26T03:44:29.002Z,23.00
2018-03-26T03:46:57.329Z,21.40
2018-03-26T03:49:25.614Z,22.67
2018-03-26T03:51:53.910Z,20.63
2018-03-26T03:54:22.229Z,22.30
2018-03-26T03:56:51.992Z,19.57
2018-03-26T03:59:20.632Z,20.40
2018-03-26T04:01:48.988Z,21.87
2018-03-26T04:04:17.276Z,20.73
2018-03-26T04:06:45.548Z,25.93
2018-03-26T04:09:13.846Z,21.80
2018-03-26T04:11:42.113Z,23.60
2018-03-26T04:14:11.247Z,22.40
2018-03-26T04:16:39.508Z,23.03
2018-03-26T04:19:07.796Z,21.60
2018-03-26T04:21:36.114Z,20.73
2018-03-26T04:24:06.336Z,21.07
2018-03-26T04:26:34.666Z,20.73
2018-03-26T04:29:03.767Z,23.37
2018-03-26T04:31:32.044Z,20.20
2018-03-26T04:34:00.345Z,20.90
2018-03-26T04:36:28.633Z,21.87
2018-03-26T04:38:57.009Z,24.63
2018-03-26T04:41:25.287Z,17.47
2018-03-26T04:43:53.571Z,23.30
2018-03-26T04:46:21.873Z,22.63
2018-03-26T04:48:50.174Z,23.80
2018-03-26T04:51:18.526Z,21.80
2018-03-26T04:53:46.790Z,21.80
2018-03-26T04:56:15.077Z,22.23
2018-03-26T04:58:43.414Z,21.00
2018-03-26T05:01:11.760Z,21.03
2018-03-26T05:03:40.110Z,21.70
2018-03-26T05:06:08.382Z,22.73
2018-03-26T05:08:36.668Z,21.70
2018-03-26T05:11:05.015Z,27.20
2018-03-26T05:13:33.322Z,31.45
2018-03-26T05:16:01.636Z,28.30
2018-03-26T05:18:30.729Z,26.57
2018-03-26T05:20:59.798Z,27.13
2018-03-26T05:23:28.100Z,24.90
2018-03-26T05:25:56.606Z,25.33
2018-03-26T05:28:24.896Z,24.20
2018-03-26T05:30:53.220Z,25.07
2018-03-26T05:33:21.520Z,23.23
2018-03-26T05:35:49.795Z,24.63
2018-03-26T05:38:18.151Z,23.50
2018-03-26T05:40:46.485Z,21.40
2018-03-26T05:43:14.820Z,25.90
2018-03-26T05:45:43.091Z,25.20
2018-03-26T05:48:11.895Z,24.27
2018-03-26T05:50:40.214Z,23.07
2018-03-26T05:53:08.537Z,23.30
2018-03-26T05:55:36.831Z,21.10
2018-03-26T05:58:07.035Z,24.67
2018-03-26T06:00:35.306Z,25.67
2018-03-26T06:03:03.629Z,25.70
2018-03-26T06:05:32.701Z,24.70
2018-03-26T06:08:00.995Z,24.20
2018-03-26T06:10:29.303Z,23.07
2018-03-26T06:12:57.600Z,25.87
2018-03-26T06:15:25.942Z,32.13
2018-03-26T06:17:55.001Z,24.43
2018-03-26T06:20:26.119Z,23.80
2018-03-26T06:22:55.167Z,26.83
2018-03-26T06:25:23.568Z,23.73
2018-03-26T06:27:51.828Z,26.10
2018-03-26T06:30:20.107Z,27.63
2018-03-26T06:32:49.216Z,25.30
2018-03-26T06:35:18.264Z,24.57
2018-03-26T06:37:50.385Z,25.20
2018-03-26T06:40:19.426Z,24.10
2018-03-26T06:42:47.710Z,25.23
2018-03-26T06:45:16.026Z,26.07
2018-03-26T06:47:45.063Z,27.67
2018-03-26T06:50:13.392Z,27.73
2018-03-26T06:52:41.655Z,26.10
2018-03-26T06:55:09.934Z,27.50
2018-03-26T06:57:38.234Z,26.77
2018-03-26T07:00:07.275Z,27.50
2018-03-26T07:02:35.630Z,26.27
2018-03-26T07:05:03.912Z,29.40
2018-03-26T07:07:32.197Z,26.00
2018-03-26T07:10:00.507Z,30.23
2018-03-26T07:12:28.893Z,25.27
2018-03-26T07:14:57.136Z,26.80
2018-03-26T07:17:25.403Z,25.90
2018-03-26T07:19:53.689Z,28.10
2018-03-26T07:22:22.046Z,27.93
2018-03-26T07:24:51.126Z,26.77
2018-03-26T07:27:20.218Z,26.50
2018-03-26T07:29:49.275Z,27.43
2018-03-26T07:32:17.553Z,26.60
2018-03-26T07:34:45.844Z,25.40
2018-03-26T07:37:14.119Z,23.97
2018-03-26T07:39:42.548Z,26.67
2018-03-26T07:42:11.600Z,26.77
2018-03-26T07:44:39.904Z,26.40
2018-03-26T07:47:08.987Z,28.73
2018-03-26T07:49:37.276Z,26.67
2018-03-26T07:52:06.461Z,27.60
2018-03-26T07:54:34.758Z,26.57
2018-03-26T07:57:03.811Z,27.97
2018-03-26T07:59:32.132Z,25.90
2018-03-26T08:02:01.179Z,26.27
2018-03-26T08:04:29.455Z,27.90
2018-03-26T08:06:57.764Z,26.30
2018-03-26T08:09:26.038Z,28.20
2018-03-26T08:11:54.387Z,29.23
2018-03-26T08:14:22.662Z,31.30
2018-03-26T08:16:50.983Z,30.47
2018-03-26T08:19:19.276Z,29.33
2018-03-26T08:21:47.564Z,27.60
2018-03-26T08:24:15.880Z,31.30
2018-03-26T08:26:44.153Z,29.47
2018-03-26T08:29:12.455Z,29.33
2018-03-26T08:31:40.754Z,29.10
2018-03-26T08:34:09.038Z,31.53
2018-03-26T08:36:37.302Z,28.97
2018-03-26T08:39:05.686Z,29.47
2018-03-26T08:41:33.954Z,26.40
2018-03-26T08:44:02.225Z,28.90
2018-03-26T08:46:30.535Z,31.40
2018-03-26T08:48:59.606Z,27.37
2018-03-26T08:51:27.937Z,30.77
2018-03-26T08:53:56.245Z,33.53
2018-03-26T08:56:27.654Z,30.83
2018-03-26T08:58:55.948Z,30.67
2018-03-26T09:01:24.278Z,30.87
2018-03-26T09:03:52.619Z,31.23
2018-03-26T09:06:20.894Z,31.70
2018-03-26T09:08:49.175Z,34.57
2018-03-26T09:11:17.504Z,33.30
2018-03-26T09:13:45.796Z,33.17
2018-03-26T09:16:14.893Z,35.93
2018-03-26T09:18:43.204Z,35.90
2018-03-26T09:21:11.471Z,35.87
2018-03-26T09:23:39.793Z,36.73
2018-03-26T09:26:08.117Z,35.90
2018-03-26T09:28:36.504Z,38.33
2018-03-26T09:31:04.793Z,38.00
2018-03-26T09:33:33.087Z,38.47
2018-03-26T09:36:01.394Z,37.30
2018-03-26T09:38:29.689Z,39.13
2018-03-26T09:40:58.789Z,38.73
2018-03-26T09:43:27.880Z,37.33
2018-03-26T09:45:56.229Z,37.27
2018-03-26T09:48:24.554Z,38.13
2018-03-26T09:50:52.888Z,39.70
2018-03-26T09:53:21.255Z,38.10
2018-03-26T09:55:49.494Z,39.27
2018-03-26T09:58:18.559Z,39.57
2018-03-26T10:00:48.702Z,38.10
2018-03-26T10:03:17.773Z,38.20
2018-03-26T10:05:46.061Z,38.30
2018-03-26T10:08:14.395Z,39.07
2018-03-26T10:10:42.675Z,40.70
2018-03-26T10:13:11.791Z,38.33
2018-03-26T10:15:40.060Z,37.27
2018-03-26T10:18:08.478Z,39.17
2018-03-26T10:20:36.792Z,36.60
2018-03-26T10:23:05.092Z,38.13
2018-03-26T10:25:33.414Z,36.57
2018-03-26T10:28:02.510Z,34.40
2018-03-26T10:30:30.830Z,35.53
2018-03-26T10:32:59.151Z,34.97
2018-03-26T10:35:27.635Z,37.37
2018-03-26T10:37:55.992Z,35.00
2018-03-26T10:40:24.274Z,35.07
2018-03-26T10:42:52.627Z,35.40
2018-03-26T10:45:20.998Z,36.30
2018-03-26T10:47:49.280Z,33.30
2018-03-26T10:50:17.610Z,34.83
2018-03-26T10:52:45.887Z,33.13
2018-03-26T10:55:14.242Z,35.23
2018-03-26T10:57:42.520Z,33.73
2018-03-26T11:00:10.794Z,32.10
2018-03-26T11:02:39.193Z,36.30
2018-03-26T11:05:07.472Z,34.53
2018-03-26T11:07:35.797Z,35.10
2018-03-26T11:10:04.107Z,34.07
2018-03-26T11:12:32.406Z,32.43
2018-03-26T11:15:00.702Z,31.70
2018-03-26T11:17:29.846Z,34.80
2018-03-26T11:19:58.172Z,34.63
2018-03-26T11:22:26.451Z,29.47
2018-03-26T11:24:54.832Z,31.13
2018-03-26T11:27:23.972Z,31.50
2018-03-26T11:29:52.246Z,28.67
2018-03-26T11:32:20.587Z,31.40
2018-03-26T11:34:48.882Z,32.47
2018-03-26T11:37:17.928Z,31.43
2018-03-26T11:39:46.234Z,30.50
2018-03-26T11:42:14.618Z,31.73
2018-03-26T11:44:42.986Z,29.60
2018-03-26T11:47:11.277Z,30.40
2018-03-26T11:49:39.574Z,30.00
2018-03-26T11:52:08.666Z,29.47
2018-03-26T11:54:37.728Z,27.90
2018-03-26T11:57:06.210Z,26.87
2018-03-26T11:59:34.531Z,29.27
2018-03-26T12:02:03.676Z,32.30
2018-03-26T12:04:32.710Z,30.57
2018-03-26T12:07:01.769Z,30.23
2018-03-26T12:09:30.047Z,28.37
2018-03-26T12:11:58.555Z,29.57
2018-03-26T12:14:26.827Z,30.70
2018-03-26T12:16:55.165Z,27.53
2018-03-26T12:19:23.517Z,27.67
2018-03-26T12:21:52.591Z,25.90
2018-03-26T12:24:33.511Z,25.70
2018-03-26T12:27:01.802Z,26.50
2018-03-26T12:29:42.047Z,24.70
2018-03-26T12:32:10.353Z,25.10
2018-03-26T12:34:50.579Z,27.77
2018-03-26T12:37:18.922Z,22.80
2018-03-26T12:39:47.223Z,25.47
2018-03-26T12:42:15.547Z,23.30
2018-03-26T12:44:55.686Z,25.10
2018-03-26T12:47:24.003Z,22.97
2018-03-26T12:49:52.305Z,24.37
2018-03-26T12:52:32.689Z,23.07
2018-03-26T12:55:00.964Z,24.63
2018-03-26T12:57:41.172Z,26.40
2018-03-26T13:00:09.470Z,25.70
2018-03-26T13:02:38.522Z,25.67
2018-03-26T13:05:06.831Z,28.40
2018-03-26T13:07:35.109Z,27.67
2018-03-26T13:10:03.461Z,25.70
2018-03-26T13:12:31.752Z,23.30
2018-03-26T13:15:00.027Z,25.83
2018-03-26T13:17:28.340Z,28.17
2018-03-26T13:19:57.399Z,28.97
2018-03-26T13:22:25.712Z,29.10
2018-03-26T13:24:54.008Z,29.27
2018-03-26T13:27:22.340Z,30.00
2018-03-26T13:29:50.632Z,31.10
2018-03-26T13:32:18.920Z,27.50
2018-03-26T13:34:48.008Z,29.77
2018-03-26T13:37:16.315Z,25.93
2018-03-26T13:39:45.419Z,23.03
2018-03-26T13:42:13.720Z,25.30
2018-03-26T13:44:42.014Z,23.70
2018-03-26T13:47:10.384Z,25.47
2018-03-26T13:49:38.679Z,24.00
2018-03-26T13:52:07.740Z,29.30
2018-03-26T13:54:36.580Z,26.17
2018-03-26T13:57:05.095Z,27.43
2018-03-26T13:59:33.528Z,29.87
2018-03-26T14:02:02.068Z,29.27
2018-03-26T14:04:30.421Z,30.27
2018-03-26T14:06:58.727Z,29.37
2018-03-26T14:09:38.946Z,30.97
2018-03-26T14:12:19.162Z,29.20
2018-03-26T14:14:59.419Z,31.53
2018-03-26T14:17:40.294Z,30.30
2018-03-26T14:20:08.579Z,30.23
2018-03-26T14:22:36.883Z,30.97
2018-03-26T14:25:05.249Z,29.23
2018-03-26T14:27:33.548Z,31.97
2018-03-26T14:30:01.850Z,28.70
2018-03-26T14:32:31.147Z,25.27
2018-03-26T14:35:12.284Z,26.93
2018-03-26T14:37:40.656Z,29.33
2018-03-26T14:40:08.951Z,27.13
2018-03-26T14:42:37.338Z,28.50
2018-03-26T14:45:05.628Z,25.83
2018-03-26T14:47:33.995Z,26.03
2018-03-26T14:50:02.357Z,30.10
2018-03-26T14:52:30.688Z,24.50
2018-03-26T14:54:59.781Z,23.37
2018-03-26T14:57:28.853Z,24.10
2018-03-26T14:59:57.250Z,26.33
2018-03-26T15:02:26.298Z,25.27
2018-03-26T15:04:54.601Z,25.93
2018-03-26T15:07:22.950Z,27.93
2018-03-26T15:09:51.249Z,27.00
2018-03-26T15:12:20.363Z,32.20
2018-03-26T15:14:48.660Z,31.57
2018-03-26T15:17:17.718Z,35.93
2018-03-26T15:19:46.075Z,32.10
2018-03-26T15:22:14.345Z,34.83
2018-03-26T15:24:42.717Z,30.93
2018-03-26T15:27:11.020Z,27.00
2018-03-26T15:29:39.339Z,27.50
2018-03-26T15:32:07.684Z,23.77
2018-03-26T15:34:36.090Z,26.60
2018-03-26T15:37:04.426Z,24.33
2018-03-26T15:39:32.826Z,24.30
2018-03-26T15:42:01.128Z,22.40
2018-03-26T15:44:30.575Z,22.70
2018-03-26T15:46:58.897Z,20.97
2018-03-26T15:49:27.276Z,24.67
2018-03-26T15:51:55.607Z,23.13
2018-03-26T15:54:23.894Z,26.27
2018-03-26T15:56:52.213Z,24.63
2018-03-26T15:59:20.579Z,22.17
2018-03-26T16:01:48.950Z,25.00
2018-03-26T16:04:17.234Z,24.67
2018-03-26T16:06:45.537Z,24.40
2018-03-26T16:09:15.379Z,25.10
2018-03-26T16:11:44.439Z,25.43
2018-03-26T16:14:12.717Z,25.30
2018-03-26T16:16:41.042Z,26.37
2018-03-26T16:19:09.479Z,26.50
2018-03-26T16:21:37.819Z,22.03
2018-03-26T16:24:06.097Z,25.80
2018-03-26T16:26:34.471Z,30.43
2018-03-26T16:29:02.896Z,26.57
2018-03-26T16:31:31.227Z,29.00
2018-03-26T16:34:00.335Z,28.20
2018-03-26T16:36:28.996Z,24.77
2018-03-26T16:38:58.288Z,25.57
2018-03-26T16:41:38.517Z,27.50
2018-03-26T16:44:06.915Z,25.87
2018-03-26T16:46:35.241Z,25.50
2018-03-26T16:49:03.520Z,29.30
2018-03-26T16:51:32.359Z,27.30
2018-03-26T16:54:00.660Z,28.63
2018-03-26T16:56:28.992Z,28.10
2018-03-26T16:58:57.302Z,27.33
2018-03-26T17:01:25.640Z,25.90
2018-03-26T17:03:53.972Z,28.47
2018-03-26T17:06:22.260Z,27.80
2018-03-26T17:08:51.315Z,27.17
2018-03-26T17:11:19.739Z,27.03
2018-03-26T17:13:48.070Z,27.73
2018-03-26T17:16:16.424Z,28.50
2018-03-26T17:18:44.759Z,28.63
2018-03-26T17:21:13.068Z,29.40
2018-03-26T17:23:41.432Z,28.80
2018-03-26T17:26:10.588Z,27.33
2018-03-26T17:28:38.939Z,26.77
2018-03-26T17:31:07.435Z,35.23
2018-03-26T17:33:35.826Z,36.30
2018-03-26T17:36:04.133Z,27.53
2018-03-26T17:38:32.471Z,24.07
2018-03-26T17:41:00.792Z,22.43
2018-03-26T17:43:29.198Z,20.63
2018-03-26T17:45:58.285Z,21.30
2018-03-26T17:48:27.359Z,18.97
2018-03-26T17:50:55.790Z,18.97
2018-03-26T17:53:24.111Z,22.57
2018-03-26T17:55:52.612Z,19.50
2018-03-26T17:58:21.001Z,20.60
2018-03-26T18:00:50.120Z,19.10
2018-03-26T18:03:19.531Z,21.40
2018-03-26T18:05:47.985Z,18.80
2018-03-26T18:08:17.109Z,19.63
2018-03-26T18:10:45.416Z,18.40
2018-03-26T18:13:13.782Z,18.10
2018-03-26T18:15:42.138Z,18.57
2018-03-26T18:18:10.482Z,18.20
2018-03-26T18:20:38.900Z,17.60
2018-03-26T18:23:07.270Z,17.53
2018-03-26T18:25:36.409Z,21.30
2018-03-26T18:28:04.796Z,18.60
2018-03-26T18:30:33.147Z,19.40
2018-03-26T18:33:01.508Z,19.60
2018-03-26T18:35:30.620Z,20.73
2018-03-26T18:37:59.049Z,20.87
2018-03-26T18:40:27.503Z,21.43
2018-03-26T18:43:24.280Z,22.33
2018-03-26T18:46:08.257Z,20.53
2018-03-26T18:48:36.695Z,22.17
2018-03-26T18:51:05.116Z,20.43
2018-03-26T18:53:34.333Z,22.37
2018-03-26T18:56:02.697Z,19.80
2018-03-26T18:58:31.096Z,19.73
2018-03-26T19:01:00.172Z,21.67
2018-03-26T19:03:28.767Z,21.87
2018-03-26T19:05:57.943Z,23.57
2018-03-26T19:08:27.079Z,20.63
2018-03-26T19:11:11.164Z,21.80
2018-03-26T19:13:43.279Z,22.60
2018-03-26T19:16:12.487Z,22.23
2018-03-26T19:18:41.819Z,21.70
2018-03-26T19:21:10.226Z,20.17
2018-03-26T19:23:38.858Z,23.03
2018-03-26T19:26:07.195Z,20.90
2018-03-26T19:28:35.661Z,22.50
2018-03-26T19:31:04.588Z,22.93
2018-03-26T19:33:33.667Z,23.47
2018-03-26T19:36:02.116Z,20.83
2018-03-26T19:38:30.457Z,22.20
2018-03-26T19:40:59.588Z,19.03
2018-03-26T19:43:27.892Z,22.90
2018-03-26T19:45:56.316Z,23.50
2018-03-26T19:48:24.717Z,21.77
2018-03-26T19:50:53.087Z,21.67
2018-03-26T19:53:21.520Z,19.93
2018-03-26T19:55:49.922Z,22.27
2018-03-26T19:58:18.240Z,21.17
2018-03-26T20:00:46.608Z,20.23
2018-03-26T20:03:14.963Z,21.17
2018-03-26T20:05:44.168Z,20.80
2018-03-26T20:08:12.520Z,19.90
2018-03-26T20:10:40.849Z,20.13
2018-03-26T20:13:09.171Z,17.13
2018-03-26T20:15:37.514Z,21.00
2018-03-26T20:18:05.846Z,22.17
2018-03-26T20:20:34.210Z,18.20
2018-03-26T20:23:02.504Z,17.53
2018-03-26T20:25:30.880Z,18.40
2018-03-26T20:27:59.221Z,18.20
2018-03-26T20:30:27.530Z,18.37
2018-03-26T20:32:55.864Z,18.90
2018-03-26T20:35:24.183Z,17.40
2018-03-26T20:37:52.568Z,18.27
2018-03-26T20:40:20.994Z,19.00
2018-03-26T20:42:49.313Z,18.80
2018-03-26T20:45:17.673Z,16.37
2018-03-26T20:47:45.965Z,18.80
2018-03-26T20:50:14.330Z,20.10
2018-03-26T20:52:42.657Z,17.43
2018-03-26T20:55:11.073Z,18.93
2018-03-26T20:57:39.391Z,18.93
2018-03-26T21:00:07.800Z,17.83
2018-03-26T21:02:36.197Z,20.67
2018-03-26T21:05:05.266Z,18.90
2018-03-26T21:07:33.571Z,20.20
2018-03-26T21:10:02.705Z,19.30
2018-03-26T21:12:31.016Z,18.47
2018-03-26T21:14:59.450Z,16.77
2018-03-26T21:17:27.743Z,18.83
2018-03-26T21:19:56.037Z,18.73
2018-03-26T21:22:24.373Z,17.70
2018-03-26T21:24:52.677Z,18.40
2018-03-26T21:27:21.784Z,19.70
2018-03-26T21:29:50.054Z,21.23
2018-03-26T21:32:18.360Z,21.70
2018-03-26T21:34:46.673Z,24.00
2018-03-26T21:37:14.964Z,21.80
2018-03-26T21:39:43.303Z,22.50
2018-03-26T21:42:11.586Z,19.23
2018-03-26T21:44:40.631Z,19.60
2018-03-26T21:47:08.962Z,19.80
2018-03-26T21:49:38.043Z,20.40
2018-03-26T21:52:06.469Z,20.70
2018-03-26T21:54:34.735Z,21.83
2018-03-26T21:57:03.070Z,20.73
2018-03-26T21:59:31.372Z,21.93
2018-03-26T22:02:00.807Z,20.90
2018-03-26T22:04:29.171Z,21.23
2018-03-26T22:06:57.413Z,21.87
2018-03-26T22:09:25.755Z,20.67
2018-03-26T22:11:54.061Z,20.47
2018-03-26T22:14:22.349Z,19.17
2018-03-26T22:16:50.669Z,18.43
2018-03-26T22:19:18.966Z,20.67
2018-03-26T22:21:47.302Z,22.10
2018-03-26T22:24:16.386Z,20.23
2018-03-26T22:26:44.687Z,20.80
2018-03-26T22:29:13.763Z,18.57
2018-03-26T22:31:42.037Z,21.40
2018-03-26T22:34:10.334Z,18.67
2018-03-26T22:36:38.631Z,19.30
2018-03-26T22:39:06.970Z,21.23
2018-03-26T22:41:35.254Z,19.43
2018-03-26T22:44:03.532Z,15.60
2018-03-26T22:46:31.836Z,20.70
2018-03-26T22:49:00.884Z,20.70
2018-03-26T22:51:29.214Z,22.15
2018-03-26T22:53:57.520Z,22.47
2018-03-26T22:56:26.563Z,23.27
2018-03-26T22:58:54.886Z,21.00
2018-03-26T23:01:23.168Z,20.37
2018-03-26T23:03:51.640Z,19.27
2018-03-26T23:06:20.672Z,19.07
2018-03-26T23:08:48.978Z,19.00
2018-03-26T23:11:17.279Z,18.57
2018-03-26T23:13:45.568Z,19.17
2018-03-26T23:16:13.853Z,19.60
2018-03-26T23:18:42.140Z,22.77
2018-03-26T23:21:10.461Z,20.53
2018-03-26T23:23:38.733Z,25.30
2018-03-26T23:26:07.018Z,23.03
2018-03-26T23:28:35.366Z,22.00
2018-03-26T23:31:03.643Z,21.50
2018-03-26T23:33:31.970Z,22.73
2018-03-26T23:36:00.238Z,21.53
2018-03-26T23:38:29.296Z,21.17
2018-03-26T23:40:58.024Z,21.50
2018-03-26T23:43:26.301Z,19.87
2018-03-26T23:45:54.732Z,19.70
2018-03-26T23:48:23.168Z,21.17
2018-03-26T23:50:51.444Z,20.93
2018-03-26T23:53:19.734Z,21.80
2018-03-26T23:55:48.771Z,22.87
2018-03-26T23:58:17.101Z,20.37
